sensor_id;sensor_type;location;lat;lon;timestamp;P1;durP1;ratioP1;P2;durP2;ratioP2
11510;SDS011;5812;48.864;9.190;2022-07-21T00:02:09;19.45;;;19.35;;
11510;SDS011;5812;48.864;9.190;2022-07-21T00:04:34;19.92;;;19.83;;
11510;SDS011;5812;48.864;9.190;2022-07-21T00:07:00;18.88;;;18.83;;
11510;SDS011;5812;48.864;9.190;2022-07-21T00:09:26;18.00;;;18.00;;
11510;SDS011;5812;48.864;9.190;2022-07-21T00:11:52;20.00;;;19.90;;
11510;SDS011;5812;48.864;9.190;2022-07-21T00:14:17;18.85;;;18.75;;
11510;SDS011;5812;48.864;9.190;2022-07-21T00:16:43;19.25;;;19.15;;
11510;SDS011;5812;48.864;9.190;2022-07-21T00:19:09;21.00;;;20.90;;
11510;SDS011;5812;48.864;9.190;2022-07-21T00:21:36;18.35;;;18.25;;
11510;SDS011;5812;48.864;9.190;2022-07-21T00:24:02;18.88;;;18.77;;
11510;SDS011;5812;48.864;9.190;2022-07-21T00:26:28;20.00;;;19.90;;
11510;SDS011;5812;48.864;9.190;2022-07-21T00:28:54;19.10;;;19.00;;
11510;SDS011;5812;48.864;9.190;2022-07-21T00:31:19;19.35;;;19.35;;
11510;SDS011;5812;48.864;9.190;2022-07-21T00:33:45;18.88;;;18.77;;
11510;SDS011;5812;48.864;9.190;2022-07-21T00:36:11;19.45;;;19.35;;
11510;SDS011;5812;48.864;9.190;2022-07-21T00:38:36;20.85;;;20.75;;
11510;SDS011;5812;48.864;9.190;2022-07-21T00:41:02;19.98;;;19.88;;
11510;SDS011;5812;48.864;9.190;2022-07-21T00:43:28;20.52;;;20.42;;
11510;SDS011;5812;48.864;9.190;2022-07-21T00:45:54;20.48;;;20.38;;
11510;SDS011;5812;48.864;9.190;2022-07-21T00:48:20;19.63;;;19.52;;
11510;SDS011;5812;48.864;9.190;2022-07-21T00:50:46;21.48;;;21.38;;
11510;SDS011;5812;48.864;9.190;2022-07-21T00:53:12;20.23;;;20.13;;
11510;SDS011;5812;48.864;9.190;2022-07-21T00:55:37;20.52;;;20.42;;
11510;SDS011;5812;48.864;9.190;2022-07-21T00:58:08;20.40;;;20.30;;
11510;SDS011;5812;48.864;9.190;2022-07-21T01:00:33;21.63;;;21.52;;
11510;SDS011;5812;48.864;9.190;2022-07-21T01:02:59;22.20;;;22.10;;
11510;SDS011;5812;48.864;9.190;2022-07-21T01:05:25;21.88;;;21.77;;
11510;SDS011;5812;48.864;9.190;2022-07-21T01:07:52;21.75;;;21.65;;
11510;SDS011;5812;48.864;9.190;2022-07-21T01:10:20;22.75;;;22.65;;
11510;SDS011;5812;48.864;9.190;2022-07-21T01:12:47;21.23;;;21.13;;
11510;SDS011;5812;48.864;9.190;2022-07-21T01:15:14;20.90;;;20.80;;
11510;SDS011;5812;48.864;9.190;2022-07-21T01:17:42;21.20;;;21.10;;
11510;SDS011;5812;48.864;9.190;2022-07-21T01:20:09;22.17;;;22.08;;
11510;SDS011;5812;48.864;9.190;2022-07-21T01:22:39;20.90;;;20.80;;
11510;SDS011;5812;48.864;9.190;2022-07-21T01:25:06;20.00;;;19.90;;
11510;SDS011;5812;48.864;9.190;2022-07-21T01:27:31;22.67;;;22.58;;
11510;SDS011;5812;48.864;9.190;2022-07-21T01:29:58;21.52;;;21.42;;
11510;SDS011;5812;48.864;9.190;2022-07-21T01:32:24;21.40;;;21.30;;
11510;SDS011;5812;48.864;9.190;2022-07-21T01:34:49;21.45;;;21.35;;
11510;SDS011;5812;48.864;9.190;2022-07-21T01:37:19;21.20;;;21.10;;
11510;SDS011;5812;48.864;9.190;2022-07-21T01:39:47;20.48;;;20.38;;
11510;SDS011;5812;48.864;9.190;2022-07-21T01:42:33;21.88;;;21.77;;
11510;SDS011;5812;48.864;9.190;2022-07-21T01:44:59;22.27;;;22.17;;
11510;SDS011;5812;48.864;9.190;2022-07-21T01:47:25;22.30;;;22.20;;
11510;SDS011;5812;48.864;9.190;2022-07-21T01:49:50;21.08;;;20.98;;
11510;SDS011;5812;48.864;9.190;2022-07-21T01:52:16;21.70;;;21.60;;
11510;SDS011;5812;48.864;9.190;2022-07-21T01:54:41;22.40;;;22.30;;
11510;SDS011;5812;48.864;9.190;2022-07-21T01:57:07;22.80;;;22.70;;
11510;SDS011;5812;48.864;9.190;2022-07-21T01:59:33;23.13;;;23.02;;
11510;SDS011;5812;48.864;9.190;2022-07-21T02:01:58;22.70;;;22.60;;
11510;SDS011;5812;48.864;9.190;2022-07-21T02:04:24;23.05;;;22.95;;
11510;SDS011;5812;48.864;9.190;2022-07-21T02:06:50;22.80;;;22.70;;
11510;SDS011;5812;48.864;9.190;2022-07-21T02:09:15;22.13;;;22.02;;
11510;SDS011;5812;48.864;9.190;2022-07-21T02:11:41;22.73;;;22.63;;
11510;SDS011;5812;48.864;9.190;2022-07-21T02:14:06;20.73;;;20.63;;
11510;SDS011;5812;48.864;9.190;2022-07-21T02:16:32;23.17;;;23.08;;
11510;SDS011;5812;48.864;9.190;2022-07-21T02:18:58;21.40;;;21.30;;
11510;SDS011;5812;48.864;9.190;2022-07-21T02:21:24;21.08;;;20.98;;
11510;SDS011;5812;48.864;9.190;2022-07-21T02:23:49;20.88;;;20.77;;
11510;SDS011;5812;48.864;9.190;2022-07-21T02:26:15;19.75;;;19.65;;
11510;SDS011;5812;48.864;9.190;2022-07-21T02:28:41;20.35;;;20.25;;
11510;SDS011;5812;48.864;9.190;2022-07-21T02:31:06;19.27;;;19.17;;
11510;SDS011;5812;48.864;9.190;2022-07-21T02:33:32;18.63;;;18.55;;
11510;SDS011;5812;48.864;9.190;2022-07-21T02:35:58;18.05;;;18.05;;
11510;SDS011;5812;48.864;9.190;2022-07-21T02:38:24;18.00;;;18.00;;
11510;SDS011;5812;48.864;9.190;2022-07-21T02:40:49;17.45;;;17.45;;
11510;SDS011;5812;48.864;9.190;2022-07-21T02:43:15;18.67;;;18.67;;
11510;SDS011;5812;48.864;9.190;2022-07-21T02:45:41;18.95;;;18.88;;
11510;SDS011;5812;48.864;9.190;2022-07-21T02:48:09;17.55;;;17.55;;
11510;SDS011;5812;48.864;9.190;2022-07-21T02:50:37;17.98;;;17.98;;
11510;SDS011;5812;48.864;9.190;2022-07-21T02:53:06;17.98;;;17.88;;
11510;SDS011;5812;48.864;9.190;2022-07-21T02:55:33;17.77;;;17.67;;
11510;SDS011;5812;48.864;9.190;2022-07-21T02:58:13;16.67;;;16.65;;
11510;SDS011;5812;48.864;9.190;2022-07-21T03:00:44;17.10;;;17.10;;
11510;SDS011;5812;48.864;9.190;2022-07-21T03:03:11;17.27;;;17.27;;
11510;SDS011;5812;48.864;9.190;2022-07-21T03:05:37;17.63;;;17.63;;
11510;SDS011;5812;48.864;9.190;2022-07-21T03:08:04;18.88;;;18.77;;
11510;SDS011;5812;48.864;9.190;2022-07-21T03:10:30;19.00;;;18.90;;
11510;SDS011;5812;48.864;9.190;2022-07-21T03:12:56;16.92;;;16.83;;
11510;SDS011;5812;48.864;9.190;2022-07-21T03:15:22;19.02;;;18.92;;
11510;SDS011;5812;48.864;9.190;2022-07-21T03:17:47;17.98;;;17.98;;
11510;SDS011;5812;48.864;9.190;2022-07-21T03:20:13;16.75;;;16.75;;
11510;SDS011;5812;48.864;9.190;2022-07-21T03:22:39;18.30;;;18.20;;
11510;SDS011;5812;48.864;9.190;2022-07-21T03:25:05;17.65;;;17.65;;
11510;SDS011;5812;48.864;9.190;2022-07-21T03:27:31;18.45;;;18.35;;
11510;SDS011;5812;48.864;9.190;2022-07-21T03:30:00;18.60;;;18.52;;
11510;SDS011;5812;48.864;9.190;2022-07-21T03:32:31;18.23;;;18.13;;
11510;SDS011;5812;48.864;9.190;2022-07-21T03:34:57;17.92;;;17.92;;
11510;SDS011;5812;48.864;9.190;2022-07-21T03:37:22;18.30;;;18.30;;
11510;SDS011;5812;48.864;9.190;2022-07-21T03:39:48;20.75;;;20.65;;
11510;SDS011;5812;48.864;9.190;2022-07-21T03:42:13;19.35;;;19.25;;
11510;SDS011;5812;48.864;9.190;2022-07-21T03:44:39;18.05;;;18.00;;
11510;SDS011;5812;48.864;9.190;2022-07-21T03:47:04;17.08;;;17.08;;
11510;SDS011;5812;48.864;9.190;2022-07-21T03:49:30;18.73;;;18.63;;
11510;SDS011;5812;48.864;9.190;2022-07-21T03:51:56;18.85;;;18.75;;
11510;SDS011;5812;48.864;9.190;2022-07-21T03:54:21;16.88;;;16.85;;
11510;SDS011;5812;48.864;9.190;2022-07-21T03:56:47;17.35;;;17.35;;
11510;SDS011;5812;48.864;9.190;2022-07-21T03:59:13;17.33;;;17.23;;
11510;SDS011;5812;48.864;9.190;2022-07-21T04:01:38;16.88;;;16.77;;
11510;SDS011;5812;48.864;9.190;2022-07-21T04:04:04;16.65;;;16.65;;
11510;SDS011;5812;48.864;9.190;2022-07-21T04:06:29;15.73;;;15.73;;
11510;SDS011;5812;48.864;9.190;2022-07-21T04:08:55;18.45;;;18.35;;
11510;SDS011;5812;48.864;9.190;2022-07-21T04:11:20;16.52;;;16.52;;
11510;SDS011;5812;48.864;9.190;2022-07-21T04:13:46;17.58;;;17.58;;
11510;SDS011;5812;48.864;9.190;2022-07-21T04:16:12;16.52;;;16.52;;
11510;SDS011;5812;48.864;9.190;2022-07-21T04:18:37;16.75;;;16.65;;
11510;SDS011;5812;48.864;9.190;2022-07-21T04:21:03;16.48;;;16.48;;
11510;SDS011;5812;48.864;9.190;2022-07-21T04:23:28;18.45;;;18.35;;
11510;SDS011;5812;48.864;9.190;2022-07-21T04:25:54;17.02;;;16.98;;
11510;SDS011;5812;48.864;9.190;2022-07-21T04:28:20;19.25;;;19.15;;
11510;SDS011;5812;48.864;9.190;2022-07-21T04:30:45;18.17;;;18.08;;
11510;SDS011;5812;48.864;9.190;2022-07-21T04:33:11;18.30;;;18.30;;
11510;SDS011;5812;48.864;9.190;2022-07-21T04:35:36;17.00;;;17.00;;
11510;SDS011;5812;48.864;9.190;2022-07-21T04:38:02;18.85;;;18.75;;
11510;SDS011;5812;48.864;9.190;2022-07-21T04:40:28;17.75;;;17.65;;
11510;SDS011;5812;48.864;9.190;2022-07-21T04:42:53;17.02;;;17.02;;
11510;SDS011;5812;48.864;9.190;2022-07-21T04:45:19;17.98;;;17.98;;
11510;SDS011;5812;48.864;9.190;2022-07-21T04:47:46;19.23;;;19.13;;
11510;SDS011;5812;48.864;9.190;2022-07-21T04:50:15;19.02;;;18.92;;
11510;SDS011;5812;48.864;9.190;2022-07-21T04:52:42;18.08;;;18.05;;
11510;SDS011;5812;48.864;9.190;2022-07-21T04:55:08;18.60;;;18.58;;
11510;SDS011;5812;48.864;9.190;2022-07-21T04:57:53;18.08;;;17.98;;
11510;SDS011;5812;48.864;9.190;2022-07-21T05:00:20;18.38;;;18.27;;
11510;SDS011;5812;48.864;9.190;2022-07-21T05:02:47;17.95;;;17.90;;
11510;SDS011;5812;48.864;9.190;2022-07-21T05:05:14;17.52;;;17.52;;
11510;SDS011;5812;48.864;9.190;2022-07-21T05:07:39;18.77;;;18.67;;
11510;SDS011;5812;48.864;9.190;2022-07-21T05:10:05;20.63;;;20.52;;
11510;SDS011;5812;48.864;9.190;2022-07-21T05:12:33;19.10;;;19.00;;
11510;SDS011;5812;48.864;9.190;2022-07-21T05:14:58;19.92;;;19.83;;
11510;SDS011;5812;48.864;9.190;2022-07-21T05:17:24;20.40;;;20.30;;
11510;SDS011;5812;48.864;9.190;2022-07-21T05:19:50;20.00;;;19.90;;
11510;SDS011;5812;48.864;9.190;2022-07-21T05:22:18;18.65;;;18.55;;
11510;SDS011;5812;48.864;9.190;2022-07-21T05:24:44;19.50;;;19.40;;
11510;SDS011;5812;48.864;9.190;2022-07-21T05:27:10;20.85;;;20.75;;
11510;SDS011;5812;48.864;9.190;2022-07-21T05:29:36;19.23;;;19.13;;
11510;SDS011;5812;48.864;9.190;2022-07-21T05:32:02;17.90;;;17.90;;
11510;SDS011;5812;48.864;9.190;2022-07-21T05:34:28;18.10;;;18.00;;
11510;SDS011;5812;48.864;9.190;2022-07-21T05:36:54;16.90;;;16.90;;
11510;SDS011;5812;48.864;9.190;2022-07-21T05:39:20;17.67;;;17.67;;
11510;SDS011;5812;48.864;9.190;2022-07-21T05:41:45;16.75;;;16.75;;
11510;SDS011;5812;48.864;9.190;2022-07-21T05:44:11;15.55;;;15.55;;
11510;SDS011;5812;48.864;9.190;2022-07-21T05:46:37;14.73;;;14.73;;
11510;SDS011;5812;48.864;9.190;2022-07-21T05:49:03;15.50;;;15.50;;
11510;SDS011;5812;48.864;9.190;2022-07-21T05:51:29;14.05;;;14.05;;
11510;SDS011;5812;48.864;9.190;2022-07-21T05:53:54;14.45;;;14.45;;
11510;SDS011;5812;48.864;9.190;2022-07-21T05:56:20;13.02;;;13.02;;
11510;SDS011;5812;48.864;9.190;2022-07-21T05:58:45;12.40;;;12.40;;
11510;SDS011;5812;48.864;9.190;2022-07-21T06:01:12;12.07;;;12.07;;
11510;SDS011;5812;48.864;9.190;2022-07-21T06:03:38;12.23;;;12.23;;
11510;SDS011;5812;48.864;9.190;2022-07-21T06:06:13;11.63;;;11.63;;
11510;SDS011;5812;48.864;9.190;2022-07-21T06:08:41;11.95;;;11.95;;
11510;SDS011;5812;48.864;9.190;2022-07-21T06:11:08;11.13;;;11.13;;
11510;SDS011;5812;48.864;9.190;2022-07-21T06:13:35;11.40;;;11.40;;
11510;SDS011;5812;48.864;9.190;2022-07-21T06:16:01;11.07;;;11.07;;
11510;SDS011;5812;48.864;9.190;2022-07-21T06:18:27;10.50;;;10.50;;
11510;SDS011;5812;48.864;9.190;2022-07-21T06:20:53;10.40;;;10.40;;
11510;SDS011;5812;48.864;9.190;2022-07-21T06:23:18;10.00;;;10.00;;
11510;SDS011;5812;48.864;9.190;2022-07-21T06:25:44;9.77;;;9.77;;
11510;SDS011;5812;48.864;9.190;2022-07-21T06:28:09;11.45;;;11.45;;
11510;SDS011;5812;48.864;9.190;2022-07-21T06:30:35;8.63;;;8.63;;
11510;SDS011;5812;48.864;9.190;2022-07-21T06:33:01;8.88;;;8.88;;
11510;SDS011;5812;48.864;9.190;2022-07-21T06:35:27;8.52;;;8.52;;
11510;SDS011;5812;48.864;9.190;2022-07-21T06:37:52;8.98;;;8.98;;
11510;SDS011;5812;48.864;9.190;2022-07-21T06:40:18;9.93;;;9.93;;
11510;SDS011;5812;48.864;9.190;2022-07-21T06:42:44;8.75;;;8.75;;
11510;SDS011;5812;48.864;9.190;2022-07-21T06:45:10;8.82;;;8.82;;
11510;SDS011;5812;48.864;9.190;2022-07-21T06:47:35;9.13;;;9.13;;
11510;SDS011;5812;48.864;9.190;2022-07-21T06:50:01;7.78;;;7.78;;
11510;SDS011;5812;48.864;9.190;2022-07-21T06:52:31;8.70;;;8.70;;
11510;SDS011;5812;48.864;9.190;2022-07-21T06:54:57;8.48;;;8.48;;
11510;SDS011;5812;48.864;9.190;2022-07-21T06:57:23;8.48;;;8.48;;
11510;SDS011;5812;48.864;9.190;2022-07-21T06:59:49;8.05;;;8.05;;
11510;SDS011;5812;48.864;9.190;2022-07-21T07:02:15;7.75;;;7.75;;
11510;SDS011;5812;48.864;9.190;2022-07-21T07:04:41;7.82;;;7.82;;
11510;SDS011;5812;48.864;9.190;2022-07-21T07:07:08;7.47;;;7.47;;
11510;SDS011;5812;48.864;9.190;2022-07-21T07:09:34;7.80;;;7.80;;
11510;SDS011;5812;48.864;9.190;2022-07-21T07:12:00;7.80;;;7.80;;
11510;SDS011;5812;48.864;9.190;2022-07-21T07:14:32;7.43;;;7.43;;
11510;SDS011;5812;48.864;9.190;2022-07-21T07:16:59;7.20;;;7.20;;
11510;SDS011;5812;48.864;9.190;2022-07-21T07:19:26;7.68;;;7.68;;
11510;SDS011;5812;48.864;9.190;2022-07-21T07:21:52;7.50;;;7.50;;
11510;SDS011;5812;48.864;9.190;2022-07-21T07:24:18;7.47;;;7.47;;
11510;SDS011;5812;48.864;9.190;2022-07-21T07:26:43;6.45;;;6.45;;
11510;SDS011;5812;48.864;9.190;2022-07-21T07:29:09;6.80;;;6.80;;
11510;SDS011;5812;48.864;9.190;2022-07-21T07:31:35;6.05;;;6.05;;
11510;SDS011;5812;48.864;9.190;2022-07-21T07:34:02;5.93;;;5.93;;
11510;SDS011;5812;48.864;9.190;2022-07-21T07:36:27;6.47;;;6.47;;
11510;SDS011;5812;48.864;9.190;2022-07-21T07:38:54;6.13;;;6.13;;
11510;SDS011;5812;48.864;9.190;2022-07-21T07:41:22;6.50;;;6.50;;
11510;SDS011;5812;48.864;9.190;2022-07-21T07:43:49;5.72;;;5.72;;
11510;SDS011;5812;48.864;9.190;2022-07-21T07:46:16;6.05;;;6.05;;
11510;SDS011;5812;48.864;9.190;2022-07-21T07:48:42;4.90;;;4.90;;
11510;SDS011;5812;48.864;9.190;2022-07-21T07:51:09;5.63;;;5.63;;
11510;SDS011;5812;48.864;9.190;2022-07-21T07:53:35;6.07;;;6.07;;
11510;SDS011;5812;48.864;9.190;2022-07-21T07:56:03;6.90;;;6.90;;
11510;SDS011;5812;48.864;9.190;2022-07-21T07:58:29;6.65;;;6.65;;
11510;SDS011;5812;48.864;9.190;2022-07-21T08:00:55;6.07;;;6.07;;
11510;SDS011;5812;48.864;9.190;2022-07-21T08:03:21;5.88;;;5.88;;
11510;SDS011;5812;48.864;9.190;2022-07-21T08:05:48;5.22;;;5.22;;
11510;SDS011;5812;48.864;9.190;2022-07-21T08:08:14;6.38;;;6.38;;
11510;SDS011;5812;48.864;9.190;2022-07-21T08:10:40;6.20;;;6.20;;
11510;SDS011;5812;48.864;9.190;2022-07-21T08:13:05;4.95;;;4.95;;
11510;SDS011;5812;48.864;9.190;2022-07-21T08:15:33;6.30;;;6.30;;
11510;SDS011;5812;48.864;9.190;2022-07-21T08:17:59;5.95;;;5.95;;
11510;SDS011;5812;48.864;9.190;2022-07-21T08:20:25;5.20;;;5.20;;
11510;SDS011;5812;48.864;9.190;2022-07-21T08:22:50;5.32;;;5.32;;
11510;SDS011;5812;48.864;9.190;2022-07-21T08:25:16;6.22;;;6.22;;
11510;SDS011;5812;48.864;9.190;2022-07-21T08:27:42;5.05;;;5.05;;
11510;SDS011;5812;48.864;9.190;2022-07-21T08:30:08;5.55;;;5.55;;
11510;SDS011;5812;48.864;9.190;2022-07-21T08:32:34;5.30;;;5.30;;
11510;SDS011;5812;48.864;9.190;2022-07-21T08:35:00;4.85;;;4.85;;
11510;SDS011;5812;48.864;9.190;2022-07-21T08:37:25;5.28;;;5.28;;
11510;SDS011;5812;48.864;9.190;2022-07-21T08:39:51;5.30;;;5.30;;
11510;SDS011;5812;48.864;9.190;2022-07-21T08:42:17;4.82;;;4.82;;
11510;SDS011;5812;48.864;9.190;2022-07-21T08:44:42;4.63;;;4.63;;
11510;SDS011;5812;48.864;9.190;2022-07-21T08:47:08;3.95;;;3.95;;
11510;SDS011;5812;48.864;9.190;2022-07-21T08:49:34;3.78;;;3.78;;
11510;SDS011;5812;48.864;9.190;2022-07-21T08:52:01;4.43;;;4.43;;
11510;SDS011;5812;48.864;9.190;2022-07-21T08:54:27;3.60;;;3.60;;
11510;SDS011;5812;48.864;9.190;2022-07-21T08:56:53;4.25;;;4.25;;
11510;SDS011;5812;48.864;9.190;2022-07-21T08:59:20;4.43;;;4.43;;
11510;SDS011;5812;48.864;9.190;2022-07-21T09:01:47;4.13;;;4.13;;
11510;SDS011;5812;48.864;9.190;2022-07-21T09:06:59;4.00;;;4.00;;
11510;SDS011;5812;48.864;9.190;2022-07-21T09:09:28;3.58;;;3.58;;
11510;SDS011;5812;48.864;9.190;2022-07-21T09:11:55;4.20;;;4.20;;
11510;SDS011;5812;48.864;9.190;2022-07-21T09:14:23;4.22;;;4.22;;
11510;SDS011;5812;48.864;9.190;2022-07-21T09:16:51;4.07;;;4.07;;
11510;SDS011;5812;48.864;9.190;2022-07-21T09:19:22;4.32;;;4.32;;
11510;SDS011;5812;48.864;9.190;2022-07-21T09:21:50;4.60;;;4.60;;
11510;SDS011;5812;48.864;9.190;2022-07-21T09:24:20;4.05;;;4.05;;
11510;SDS011;5812;48.864;9.190;2022-07-21T09:34:38;4.22;;;4.22;;
11510;SDS011;5812;48.864;9.190;2022-07-21T09:37:04;5.07;;;5.07;;
11510;SDS011;5812;48.864;9.190;2022-07-21T09:44:55;3.70;;;3.70;;
11510;SDS011;5812;48.864;9.190;2022-07-21T09:47:23;3.70;;;3.70;;
11510;SDS011;5812;48.864;9.190;2022-07-21T09:49:52;3.78;;;3.78;;
11510;SDS011;5812;48.864;9.190;2022-07-21T09:52:31;4.45;;;4.45;;
11510;SDS011;5812;48.864;9.190;2022-07-21T09:54:59;3.55;;;3.55;;
11510;SDS011;5812;48.864;9.190;2022-07-21T09:57:26;4.00;;;4.00;;
11510;SDS011;5812;48.864;9.190;2022-07-21T09:59:53;3.88;;;3.88;;
11510;SDS011;5812;48.864;9.190;2022-07-21T10:04:53;3.95;;;3.95;;
11510;SDS011;5812;48.864;9.190;2022-07-21T10:07:41;3.88;;;3.88;;
11510;SDS011;5812;48.864;9.190;2022-07-21T10:10:09;3.88;;;3.88;;
11510;SDS011;5812;48.864;9.190;2022-07-21T10:12:35;4.53;;;4.53;;
11510;SDS011;5812;48.864;9.190;2022-07-21T10:15:01;4.05;;;4.05;;
11510;SDS011;5812;48.864;9.190;2022-07-21T10:17:27;4.30;;;4.30;;
11510;SDS011;5812;48.864;9.190;2022-07-21T10:20:11;4.13;;;4.13;;
11510;SDS011;5812;48.864;9.190;2022-07-21T10:22:56;4.35;;;4.35;;
11510;SDS011;5812;48.864;9.190;2022-07-21T10:25:33;4.13;;;4.13;;
11510;SDS011;5812;48.864;9.190;2022-07-21T10:30:41;4.50;;;4.50;;
11510;SDS011;5812;48.864;9.190;2022-07-21T10:33:14;4.25;;;4.25;;
11510;SDS011;5812;48.864;9.190;2022-07-21T10:35:42;4.22;;;4.22;;
11510;SDS011;5812;48.864;9.190;2022-07-21T10:41:05;4.15;;;4.15;;
11510;SDS011;5812;48.864;9.190;2022-07-21T10:45:57;3.00;;;3.00;;
11510;SDS011;5812;48.864;9.190;2022-07-21T10:51:23;3.08;;;3.08;;
11510;SDS011;5812;48.864;9.190;2022-07-21T10:53:55;2.92;;;2.92;;
11510;SDS011;5812;48.864;9.190;2022-07-21T10:56:41;2.92;;;2.92;;
11510;SDS011;5812;48.864;9.190;2022-07-21T10:59:06;2.92;;;2.92;;
11510;SDS011;5812;48.864;9.190;2022-07-21T11:01:32;2.60;;;2.60;;
11510;SDS011;5812;48.864;9.190;2022-07-21T11:06:35;2.92;;;2.92;;
11510;SDS011;5812;48.864;9.190;2022-07-21T11:11:29;3.13;;;3.13;;
11510;SDS011;5812;48.864;9.190;2022-07-21T11:21:54;2.45;;;2.45;;
11510;SDS011;5812;48.864;9.190;2022-07-21T11:24:20;2.92;;;2.92;;
11510;SDS011;5812;48.864;9.190;2022-07-21T11:26:57;2.60;;;2.60;;
11510;SDS011;5812;48.864;9.190;2022-07-21T11:29:26;2.38;;;2.38;;
11510;SDS011;5812;48.864;9.190;2022-07-21T11:31:53;2.63;;;2.63;;
11510;SDS011;5812;48.864;9.190;2022-07-21T11:34:18;2.63;;;2.63;;
11510;SDS011;5812;48.864;9.190;2022-07-21T11:36:44;2.58;;;2.58;;
11510;SDS011;5812;48.864;9.190;2022-07-21T11:39:12;2.55;;;2.55;;
11510;SDS011;5812;48.864;9.190;2022-07-21T11:41:39;2.47;;;2.47;;
11510;SDS011;5812;48.864;9.190;2022-07-21T11:44:07;2.60;;;2.60;;
11510;SDS011;5812;48.864;9.190;2022-07-21T11:46:44;2.67;;;2.67;;
11510;SDS011;5812;48.864;9.190;2022-07-21T11:49:10;2.50;;;2.50;;
11510;SDS011;5812;48.864;9.190;2022-07-21T11:51:36;2.85;;;2.85;;
11510;SDS011;5812;48.864;9.190;2022-07-21T11:54:01;2.92;;;2.92;;
11510;SDS011;5812;48.864;9.190;2022-07-21T11:56:27;3.50;;;3.50;;
11510;SDS011;5812;48.864;9.190;2022-07-21T11:59:07;3.08;;;3.08;;
11510;SDS011;5812;48.864;9.190;2022-07-21T12:01:47;3.20;;;3.20;;
11510;SDS011;5812;48.864;9.190;2022-07-21T12:04:36;3.80;;;3.80;;
11510;SDS011;5812;48.864;9.190;2022-07-21T12:07:05;3.97;;;3.97;;
11510;SDS011;5812;48.864;9.190;2022-07-21T12:09:35;3.42;;;3.42;;
11510;SDS011;5812;48.864;9.190;2022-07-21T12:12:03;4.18;;;4.18;;
11510;SDS011;5812;48.864;9.190;2022-07-21T12:14:42;3.95;;;3.95;;
11510;SDS011;5812;48.864;9.190;2022-07-21T12:17:17;4.13;;;4.13;;
11510;SDS011;5812;48.864;9.190;2022-07-21T12:19:58;4.10;;;4.10;;
11510;SDS011;5812;48.864;9.190;2022-07-21T12:22:33;4.07;;;4.07;;
11510;SDS011;5812;48.864;9.190;2022-07-21T12:25:00;3.88;;;3.88;;
11510;SDS011;5812;48.864;9.190;2022-07-21T12:27:26;3.72;;;3.72;;
11510;SDS011;5812;48.864;9.190;2022-07-21T12:29:52;4.13;;;4.13;;
11510;SDS011;5812;48.864;9.190;2022-07-21T12:32:37;4.40;;;4.40;;
11510;SDS011;5812;48.864;9.190;2022-07-21T12:35:21;3.92;;;3.92;;
11510;SDS011;5812;48.864;9.190;2022-07-21T12:37:52;3.45;;;3.45;;
11510;SDS011;5812;48.864;9.190;2022-07-21T12:40:25;3.63;;;3.63;;
11510;SDS011;5812;48.864;9.190;2022-07-21T12:48:17;3.80;;;3.80;;
11510;SDS011;5812;48.864;9.190;2022-07-21T12:53:35;3.40;;;3.40;;
11510;SDS011;5812;48.864;9.190;2022-07-21T12:56:03;3.80;;;3.80;;
11510;SDS011;5812;48.864;9.190;2022-07-21T12:58:29;4.20;;;4.20;;
11510;SDS011;5812;48.864;9.190;2022-07-21T13:00:55;3.28;;;3.28;;
11510;SDS011;5812;48.864;9.190;2022-07-21T13:03:21;3.60;;;3.60;;
11510;SDS011;5812;48.864;9.190;2022-07-21T13:05:46;3.55;;;3.55;;
11510;SDS011;5812;48.864;9.190;2022-07-21T13:08:13;3.70;;;3.70;;
11510;SDS011;5812;48.864;9.190;2022-07-21T13:10:38;3.35;;;3.35;;
11510;SDS011;5812;48.864;9.190;2022-07-21T13:13:04;3.53;;;3.53;;
11510;SDS011;5812;48.864;9.190;2022-07-21T13:15:30;3.17;;;3.17;;
11510;SDS011;5812;48.864;9.190;2022-07-21T13:17:56;3.28;;;3.28;;
11510;SDS011;5812;48.864;9.190;2022-07-21T13:20:21;3.30;;;3.30;;
11510;SDS011;5812;48.864;9.190;2022-07-21T13:22:47;2.75;;;2.75;;
11510;SDS011;5812;48.864;9.190;2022-07-21T13:25:13;3.05;;;3.05;;
11510;SDS011;5812;48.864;9.190;2022-07-21T13:27:39;2.90;;;2.90;;
11510;SDS011;5812;48.864;9.190;2022-07-21T13:30:05;2.95;;;2.95;;
11510;SDS011;5812;48.864;9.190;2022-07-21T13:32:35;3.30;;;3.30;;
11510;SDS011;5812;48.864;9.190;2022-07-21T13:35:01;3.53;;;3.53;;
11510;SDS011;5812;48.864;9.190;2022-07-21T13:37:31;2.83;;;2.83;;
11510;SDS011;5812;48.864;9.190;2022-07-21T13:39:56;2.58;;;2.58;;
11510;SDS011;5812;48.864;9.190;2022-07-21T13:42:22;2.72;;;2.72;;
11510;SDS011;5812;48.864;9.190;2022-07-21T13:44:48;2.50;;;2.50;;
11510;SDS011;5812;48.864;9.190;2022-07-21T13:47:13;2.80;;;2.80;;
11510;SDS011;5812;48.864;9.190;2022-07-21T13:49:39;2.50;;;2.50;;
11510;SDS011;5812;48.864;9.190;2022-07-21T13:52:05;2.72;;;2.72;;
11510;SDS011;5812;48.864;9.190;2022-07-21T13:54:30;2.25;;;2.25;;
11510;SDS011;5812;48.864;9.190;2022-07-21T13:56:56;2.47;;;2.47;;
11510;SDS011;5812;48.864;9.190;2022-07-21T13:59:22;2.30;;;2.30;;
11510;SDS011;5812;48.864;9.190;2022-07-21T14:01:48;2.90;;;2.90;;
11510;SDS011;5812;48.864;9.190;2022-07-21T14:04:14;3.08;;;3.08;;
11510;SDS011;5812;48.864;9.190;2022-07-21T14:06:39;2.30;;;2.30;;
11510;SDS011;5812;48.864;9.190;2022-07-21T14:09:05;2.55;;;2.55;;
11510;SDS011;5812;48.864;9.190;2022-07-21T14:11:31;2.70;;;2.70;;
11510;SDS011;5812;48.864;9.190;2022-07-21T14:13:56;3.00;;;3.00;;
11510;SDS011;5812;48.864;9.190;2022-07-21T14:16:22;2.60;;;2.60;;
11510;SDS011;5812;48.864;9.190;2022-07-21T14:18:48;2.72;;;2.72;;
11510;SDS011;5812;48.864;9.190;2022-07-21T14:21:13;2.30;;;2.30;;
11510;SDS011;5812;48.864;9.190;2022-07-21T14:23:39;2.50;;;2.50;;
11510;SDS011;5812;48.864;9.190;2022-07-21T14:26:05;2.50;;;2.50;;
11510;SDS011;5812;48.864;9.190;2022-07-21T14:28:31;2.55;;;2.55;;
11510;SDS011;5812;48.864;9.190;2022-07-21T14:30:56;2.63;;;2.63;;
11510;SDS011;5812;48.864;9.190;2022-07-21T14:33:22;2.60;;;2.60;;
11510;SDS011;5812;48.864;9.190;2022-07-21T14:35:48;2.70;;;2.70;;
11510;SDS011;5812;48.864;9.190;2022-07-21T14:38:14;2.70;;;2.70;;
11510;SDS011;5812;48.864;9.190;2022-07-21T14:40:40;2.42;;;2.42;;
11510;SDS011;5812;48.864;9.190;2022-07-21T14:43:06;3.08;;;3.08;;
11510;SDS011;5812;48.864;9.190;2022-07-21T14:45:32;2.97;;;2.97;;
11510;SDS011;5812;48.864;9.190;2022-07-21T14:47:57;3.00;;;3.00;;
11510;SDS011;5812;48.864;9.190;2022-07-21T14:50:23;3.00;;;3.00;;
11510;SDS011;5812;48.864;9.190;2022-07-21T14:52:50;2.95;;;2.95;;
11510;SDS011;5812;48.864;9.190;2022-07-21T14:55:16;2.50;;;2.50;;
11510;SDS011;5812;48.864;9.190;2022-07-21T14:57:42;2.63;;;2.63;;
11510;SDS011;5812;48.864;9.190;2022-07-21T15:00:08;2.70;;;2.70;;
11510;SDS011;5812;48.864;9.190;2022-07-21T15:02:34;2.80;;;2.80;;
11510;SDS011;5812;48.864;9.190;2022-07-21T15:05:00;2.60;;;2.60;;
11510;SDS011;5812;48.864;9.190;2022-07-21T15:07:27;2.65;;;2.65;;
11510;SDS011;5812;48.864;9.190;2022-07-21T15:09:52;2.75;;;2.75;;
11510;SDS011;5812;48.864;9.190;2022-07-21T15:12:20;3.08;;;3.08;;
11510;SDS011;5812;48.864;9.190;2022-07-21T15:14:48;2.42;;;2.42;;
11510;SDS011;5812;48.864;9.190;2022-07-21T15:17:14;2.83;;;2.83;;
11510;SDS011;5812;48.864;9.190;2022-07-21T15:19:41;2.50;;;2.50;;
11510;SDS011;5812;48.864;9.190;2022-07-21T15:22:07;2.42;;;2.42;;
11510;SDS011;5812;48.864;9.190;2022-07-21T15:24:33;2.53;;;2.53;;
11510;SDS011;5812;48.864;9.190;2022-07-21T15:26:59;3.03;;;3.03;;
11510;SDS011;5812;48.864;9.190;2022-07-21T15:29:25;2.58;;;2.58;;
11510;SDS011;5812;48.864;9.190;2022-07-21T15:31:50;2.60;;;2.60;;
11510;SDS011;5812;48.864;9.190;2022-07-21T15:34:16;2.95;;;2.95;;
11510;SDS011;5812;48.864;9.190;2022-07-21T15:36:41;2.33;;;2.33;;
11510;SDS011;5812;48.864;9.190;2022-07-21T15:39:07;2.60;;;2.60;;
11510;SDS011;5812;48.864;9.190;2022-07-21T15:41:36;2.75;;;2.75;;